Skip Navigation Links Skip Navigation Links

Current Weather

Lynchburg Regional/Preston Glenn Fld, Lynchburg, Va.

For information only: do not use for flight planning or navigation.
Latest weather
Observation time Thursday, October 18, 2018 12:54 AM EDT
Local time Thursday, October 18, 2018 1:36 AM EDT
Flight conditions Visual Meteorological Conditions
Winds
Wind direction Northwest (310°)
Wind speed 5 mph
Visibility 10 mi.
Sky condition
Ceiling unlimited
Sky clear
Temperature 50°F
Dewpoint 42°F
Altimeter 30.26 in.Hg
Derived measurements
Relative humidity 74%
Wind chill 48°F
Density altitude 85 ft.
Sea-level pressure 30.25 in.Hg
Climate data
Temperature minimum, last 24 hours 50°F
Temperature maximum, last 24 hours 70°F
Remarks
Fully automated report.
Automated weather observing station with precipitation discriminator.
METAR KLYH 180454Z AUTO 31004KT 10SM CLR 10/06 A3026 RMK AO2 SLP243 T01000056 402110100

Settings

Location code

InnerDrive.Weather 4.0.6770.0 Release CLR 4.0.30319.42000
Copyright ©2018 Inner Drive Technology. All rights reserved. Portions Copyright ©1986-2018 David Braverman.

Find weather

Site navigation


Skip Navigation Links

Place info

Page info

PayPal - The safer, easier way to pay online!

Return home.

Copyright ©2018 Inner Drive Technology. Purveyors of fine, hand-crafted computer software. Page printed 2018-10-18T05:36:03 UTC.